Terminal Aerodrome Forecast
Issued by NWS St Louis, MO

Home | Current Version | Previous Version | Graphics & Text | Print | Product List | Glossary On
Versions: 1 2 3 4 5 6 7 8 9 10 11 12 13 14 15 16 17 18 19 20 21 22 23
000
FTUS43 KLSX 222321
TAFSTL
TAF
KSTL 222321Z 2300/2406 05010KT 6SM -SHRA OVC045
     FM230800 05010KT 6SM -SHRA SCT025 OVC045
     FM231200 04012G18KT P6SM VCSH BKN025 OVC050
     FM231800 04012G20KT P6SM OVC050=

USA.gov is the U.S. government's official web portal to all federal, state and local government web resources and services.